sensor_id;sensor_type;location;lat;lon;timestamp;temperature;humidity
37658;DHT22;23500;53.268;8.308;2024-03-23T00:55:43;16.80;74.60
37658;DHT22;23500;53.268;8.308;2024-03-23T00:58:09;16.80;74.70
37658;DHT22;23500;53.268;8.308;2024-03-23T01:00:35;16.80;74.70
37658;DHT22;23500;53.268;8.308;2024-03-23T01:03:01;16.80;74.80
37658;DHT22;23500;53.268;8.308;2024-03-23T01:05:26;16.80;74.80
37658;DHT22;23500;53.268;8.308;2024-03-23T01:07:52;16.80;74.80
37658;DHT22;23500;53.268;8.308;2024-03-23T01:10:18;16.80;74.90
37658;DHT22;23500;53.268;8.308;2024-03-23T01:12:43;16.70;74.80
37658;DHT22;23500;53.268;8.308;2024-03-23T01:15:09;16.70;74.90
37658;DHT22;23500;53.268;8.308;2024-03-23T01:17:35;16.70;75.00
37658;DHT22;23500;53.268;8.308;2024-03-23T01:20:01;16.70;75.10
37658;DHT22;23500;53.268;8.308;2024-03-23T01:22:26;16.70;75.00
37658;DHT22;23500;53.268;8.308;2024-03-23T01:24:52;16.70;75.10
37658;DHT22;23500;53.268;8.308;2024-03-23T01:27:18;16.70;75.10
37658;DHT22;23500;53.268;8.308;2024-03-23T01:29:43;16.70;75.10
37658;DHT22;23500;53.268;8.308;2024-03-23T01:32:09;16.70;75.20
37658;DHT22;23500;53.268;8.308;2024-03-23T01:34:35;16.70;75.20
37658;DHT22;23500;53.268;8.308;2024-03-23T01:37:01;16.70;75.30
37658;DHT22;23500;53.268;8.308;2024-03-23T01:39:26;16.70;75.30
37658;DHT22;23500;53.268;8.308;2024-03-23T01:41:52;16.60;75.30
37658;DHT22;23500;53.268;8.308;2024-03-23T01:44:18;16.60;75.30
37658;DHT22;23500;53.268;8.308;2024-03-23T01:46:44;16.60;75.40
37658;DHT22;23500;53.268;8.308;2024-03-23T01:49:10;16.60;75.30
37658;DHT22;23500;53.268;8.308;2024-03-23T01:51:36;16.60;75.40
37658;DHT22;23500;53.268;8.308;2024-03-23T01:54:03;16.60;75.40
37658;DHT22;23500;53.268;8.308;2024-03-23T01:56:33;16.60;75.40
37658;DHT22;23500;53.268;8.308;2024-03-23T01:59:07;16.60;75.50
37658;DHT22;23500;53.268;8.308;2024-03-23T02:01:35;16.60;75.50
37658;DHT22;23500;53.268;8.308;2024-03-23T02:04:04;16.60;75.60
37658;DHT22;23500;53.268;8.308;2024-03-23T02:06:29;16.60;75.60
37658;DHT22;23500;53.268;8.308;2024-03-23T02:08:55;16.60;75.60
37658;DHT22;23500;53.268;8.308;2024-03-23T02:11:22;16.60;75.60
37658;DHT22;23500;53.268;8.308;2024-03-23T02:13:47;16.60;75.60
37658;DHT22;23500;53.268;8.308;2024-03-23T02:16:13;16.60;75.60
37658;DHT22;23500;53.268;8.308;2024-03-23T02:18:39;16.50;75.60
37658;DHT22;23500;53.268;8.308;2024-03-23T02:21:05;16.50;75.60
37658;DHT22;23500;53.268;8.308;2024-03-23T02:23:30;16.50;75.60
37658;DHT22;23500;53.268;8.308;2024-03-23T02:25:56;16.50;75.60
37658;DHT22;23500;53.268;8.308;2024-03-23T02:28:22;16.50;75.70
37658;DHT22;23500;53.268;8.308;2024-03-23T02:30:50;16.50;75.70
37658;DHT22;23500;53.268;8.308;2024-03-23T02:33:16;16.50;75.70
37658;DHT22;23500;53.268;8.308;2024-03-23T02:35:45;16.50;75.80
37658;DHT22;23500;53.268;8.308;2024-03-23T02:38:11;16.50;75.80
37658;DHT22;23500;53.268;8.308;2024-03-23T02:40:37;16.50;75.80
37658;DHT22;23500;53.268;8.308;2024-03-23T02:43:05;16.50;75.80
37658;DHT22;23500;53.268;8.308;2024-03-23T02:45:31;16.50;75.80
37658;DHT22;23500;53.268;8.308;2024-03-23T02:47:57;16.50;75.90
37658;DHT22;23500;53.268;8.308;2024-03-23T02:50:23;16.50;75.90
37658;DHT22;23500;53.268;8.308;2024-03-23T02:52:48;16.50;75.90
37658;DHT22;23500;53.268;8.308;2024-03-23T02:55:14;16.50;75.90
37658;DHT22;23500;53.268;8.308;2024-03-23T02:57:41;16.50;75.90
37658;DHT22;23500;53.268;8.308;2024-03-23T03:00:07;16.40;75.90
37658;DHT22;23500;53.268;8.308;2024-03-23T03:02:33;16.40;75.90
37658;DHT22;23500;53.268;8.308;2024-03-23T03:04:59;16.40;75.90
37658;DHT22;23500;53.268;8.308;2024-03-23T03:07:25;16.40;76.00
37658;DHT22;23500;53.268;8.308;2024-03-23T03:09:51;16.40;76.00
37658;DHT22;23500;53.268;8.308;2024-03-23T03:12:17;16.40;76.00
37658;DHT22;23500;53.268;8.308;2024-03-23T03:14:42;16.40;76.00
37658;DHT22;23500;53.268;8.308;2024-03-23T03:17:08;16.40;76.10
37658;DHT22;23500;53.268;8.308;2024-03-23T03:19:34;16.40;76.10
37658;DHT22;23500;53.268;8.308;2024-03-23T03:21:59;16.40;76.10
37658;DHT22;23500;53.268;8.308;2024-03-23T03:24:25;16.40;76.10
37658;DHT22;23500;53.268;8.308;2024-03-23T03:26:51;16.40;76.10
37658;DHT22;23500;53.268;8.308;2024-03-23T03:29:17;16.40;76.10
37658;DHT22;23500;53.268;8.308;2024-03-23T03:31:43;16.40;76.20
37658;DHT22;23500;53.268;8.308;2024-03-23T03:34:09;16.40;76.10
37658;DHT22;23500;53.268;8.308;2024-03-23T03:36:34;16.40;76.20
37658;DHT22;23500;53.268;8.308;2024-03-23T03:39:00;16.40;76.30
37658;DHT22;23500;53.268;8.308;2024-03-23T03:41:28;16.40;76.30
37658;DHT22;23500;53.268;8.308;2024-03-23T03:43:53;16.40;76.30
37658;DHT22;23500;53.268;8.308;2024-03-23T03:46:20;16.40;76.30
37658;DHT22;23500;53.268;8.308;2024-03-23T03:48:46;16.30;76.30
37658;DHT22;23500;53.268;8.308;2024-03-23T03:51:13;16.30;76.30
37658;DHT22;23500;53.268;8.308;2024-03-23T03:53:39;16.30;76.30
37658;DHT22;23500;53.268;8.308;2024-03-23T03:56:05;16.30;76.30
37658;DHT22;23500;53.268;8.308;2024-03-23T03:58:32;16.30;76.40
37658;DHT22;23500;53.268;8.308;2024-03-23T04:00:57;16.30;76.40
37658;DHT22;23500;53.268;8.308;2024-03-23T04:03:23;16.30;76.40
37658;DHT22;23500;53.268;8.308;2024-03-23T04:05:52;16.30;76.40
37658;DHT22;23500;53.268;8.308;2024-03-23T04:08:19;16.30;76.40
37658;DHT22;23500;53.268;8.308;2024-03-23T04:10:44;16.30;76.40
37658;DHT22;23500;53.268;8.308;2024-03-23T04:13:11;16.30;76.40
37658;DHT22;23500;53.268;8.308;2024-03-23T04:15:37;16.30;76.40
37658;DHT22;23500;53.268;8.308;2024-03-23T04:18:03;16.30;76.40
37658;DHT22;23500;53.268;8.308;2024-03-23T04:20:28;16.30;76.50
37658;DHT22;23500;53.268;8.308;2024-03-23T04:22:54;16.30;76.50
37658;DHT22;23500;53.268;8.308;2024-03-23T04:25:20;16.30;76.50
37658;DHT22;23500;53.268;8.308;2024-03-23T04:27:46;16.30;76.50
37658;DHT22;23500;53.268;8.308;2024-03-23T04:30:12;16.30;77.20
37658;DHT22;23500;53.268;8.308;2024-03-23T04:32:38;16.30;76.50
37658;DHT22;23500;53.268;8.308;2024-03-23T04:35:04;16.30;76.60
37658;DHT22;23500;53.268;8.308;2024-03-23T04:37:37;16.30;76.60
37658;DHT22;23500;53.268;8.308;2024-03-23T04:40:04;16.20;76.50
37658;DHT22;23500;53.268;8.308;2024-03-23T04:42:30;16.20;76.50
37658;DHT22;23500;53.268;8.308;2024-03-23T04:44:56;16.20;76.60
37658;DHT22;23500;53.268;8.308;2024-03-23T04:47:22;16.20;76.60
37658;DHT22;23500;53.268;8.308;2024-03-23T04:49:48;16.20;76.60
37658;DHT22;23500;53.268;8.308;2024-03-23T04:52:14;16.20;76.70
37658;DHT22;23500;53.268;8.308;2024-03-23T04:54:39;16.20;76.70
37658;DHT22;23500;53.268;8.308;2024-03-23T04:57:08;16.20;76.70
37658;DHT22;23500;53.268;8.308;2024-03-23T04:59:34;16.20;76.70
37658;DHT22;23500;53.268;8.308;2024-03-23T05:02:00;16.20;76.70
37658;DHT22;23500;53.268;8.308;2024-03-23T05:04:26;16.20;76.70
37658;DHT22;23500;53.268;8.308;2024-03-23T05:06:51;16.20;76.80
37658;DHT22;23500;53.268;8.308;2024-03-23T05:09:17;16.20;76.70
37658;DHT22;23500;53.268;8.308;2024-03-23T05:11:43;16.20;76.80
37658;DHT22;23500;53.268;8.308;2024-03-23T05:14:08;16.20;76.80
37658;DHT22;23500;53.268;8.308;2024-03-23T05:16:34;16.20;76.80
37658;DHT22;23500;53.268;8.308;2024-03-23T05:19:00;16.20;76.80
37658;DHT22;23500;53.268;8.308;2024-03-23T05:21:26;16.20;76.80
37658;DHT22;23500;53.268;8.308;2024-03-23T05:23:54;16.20;76.80
37658;DHT22;23500;53.268;8.308;2024-03-23T05:26:19;16.20;76.80
37658;DHT22;23500;53.268;8.308;2024-03-23T05:28:45;16.20;76.80
37658;DHT22;23500;53.268;8.308;2024-03-23T05:31:11;16.10;76.80
37658;DHT22;23500;53.268;8.308;2024-03-23T05:33:37;16.10;76.80
37658;DHT22;23500;53.268;8.308;2024-03-23T05:36:05;16.10;76.70
37658;DHT22;23500;53.268;8.308;2024-03-23T05:38:34;16.20;76.80
37658;DHT22;23500;53.268;8.308;2024-03-23T05:41:00;16.20;76.80
37658;DHT22;23500;53.268;8.308;2024-03-23T05:43:26;16.40;76.50
37658;DHT22;23500;53.268;8.308;2024-03-23T05:45:59;16.60;75.90
37658;DHT22;23500;53.268;8.308;2024-03-23T05:48:26;16.80;75.30
37658;DHT22;23500;53.268;8.308;2024-03-23T05:50:52;17.00;74.50
37658;DHT22;23500;53.268;8.308;2024-03-23T05:53:18;17.30;73.70
37658;DHT22;23500;53.268;8.308;2024-03-23T05:55:47;17.50;72.90
37658;DHT22;23500;53.268;8.308;2024-03-23T05:58:17;17.70;72.20
37658;DHT22;23500;53.268;8.308;2024-03-23T06:00:43;17.90;71.50
37658;DHT22;23500;53.268;8.308;2024-03-23T06:03:09;18.20;70.70
37658;DHT22;23500;53.268;8.308;2024-03-23T06:05:39;19.60;67.30
37658;DHT22;23500;53.268;8.308;2024-03-23T06:08:05;22.40;58.50
37658;DHT22;23500;53.268;8.308;2024-03-23T06:10:31;23.90;54.40
37658;DHT22;23500;53.268;8.308;2024-03-23T06:12:59;24.20;52.90
37658;DHT22;23500;53.268;8.308;2024-03-23T06:15:25;24.30;52.50
37658;DHT22;23500;53.268;8.308;2024-03-23T06:17:51;24.10;52.60
37658;DHT22;23500;53.268;8.308;2024-03-23T06:20:17;24.00;52.90
37658;DHT22;23500;53.268;8.308;2024-03-23T06:22:43;23.70;53.40
37658;DHT22;23500;53.268;8.308;2024-03-23T06:25:08;23.50;53.90
37658;DHT22;23500;53.268;8.308;2024-03-23T06:27:34;23.20;54.50
37658;DHT22;23500;53.268;8.308;2024-03-23T06:30:00;22.90;55.10
37658;DHT22;23500;53.268;8.308;2024-03-23T06:32:27;22.60;55.70
37658;DHT22;23500;53.268;8.308;2024-03-23T06:34:53;22.30;56.40
37658;DHT22;23500;53.268;8.308;2024-03-23T06:37:18;22.10;57.00
37658;DHT22;23500;53.268;8.308;2024-03-23T06:39:46;21.80;57.70
37658;DHT22;23500;53.268;8.308;2024-03-23T06:42:13;21.60;58.40
37658;DHT22;23500;53.268;8.308;2024-03-23T06:44:39;21.40;58.90
37658;DHT22;23500;53.268;8.308;2024-03-23T06:47:05;21.10;59.40
37658;DHT22;23500;53.268;8.308;2024-03-23T06:49:31;20.90;60.00
37658;DHT22;23500;53.268;8.308;2024-03-23T06:51:56;20.70;60.80
37658;DHT22;23500;53.268;8.308;2024-03-23T06:54:22;20.50;61.40
37658;DHT22;23500;53.268;8.308;2024-03-23T06:56:49;20.30;62.10
37658;DHT22;23500;53.268;8.308;2024-03-23T06:59:15;20.10;62.70
37658;DHT22;23500;53.268;8.308;2024-03-23T07:01:40;19.90;63.20
37658;DHT22;23500;53.268;8.308;2024-03-23T07:04:07;19.80;63.80
37658;DHT22;23500;53.268;8.308;2024-03-23T07:06:33;19.70;64.10
37658;DHT22;23500;53.268;8.308;2024-03-23T07:08:59;19.60;64.50
37658;DHT22;23500;53.268;8.308;2024-03-23T07:11:25;19.40;64.80
37658;DHT22;23500;53.268;8.308;2024-03-23T07:13:52;19.30;65.30
37658;DHT22;23500;53.268;8.308;2024-03-23T07:16:18;19.30;65.70
37658;DHT22;23500;53.268;8.308;2024-03-23T07:18:43;19.20;65.90
37658;DHT22;23500;53.268;8.308;2024-03-23T07:21:09;19.10;66.10
37658;DHT22;23500;53.268;8.308;2024-03-23T07:23:35;19.00;66.30
37658;DHT22;23500;53.268;8.308;2024-03-23T07:26:02;19.00;66.40
37658;DHT22;23500;53.268;8.308;2024-03-23T07:28:29;19.00;66.60
37658;DHT22;23500;53.268;8.308;2024-03-23T07:33:30;19.00;66.80
37658;DHT22;23500;53.268;8.308;2024-03-23T07:35:55;19.00;66.80
37658;DHT22;23500;53.268;8.308;2024-03-23T07:38:21;18.90;66.80
37658;DHT22;23500;53.268;8.308;2024-03-23T07:40:47;18.90;67.00
37658;DHT22;23500;53.268;8.308;2024-03-23T07:43:15;18.90;67.20
37658;DHT22;23500;53.268;8.308;2024-03-23T07:45:41;18.80;67.30
37658;DHT22;23500;53.268;8.308;2024-03-23T07:48:06;18.80;67.50
37658;DHT22;23500;53.268;8.308;2024-03-23T07:50:32;18.80;67.70
37658;DHT22;23500;53.268;8.308;2024-03-23T07:52:58;18.90;67.60
37658;DHT22;23500;53.268;8.308;2024-03-23T07:55:24;19.40;66.20
37658;DHT22;23500;53.268;8.308;2024-03-23T07:57:51;19.90;64.70
37658;DHT22;23500;53.268;8.308;2024-03-23T08:00:17;20.40;62.80
37658;DHT22;23500;53.268;8.308;2024-03-23T08:02:43;21.00;61.00
37658;DHT22;23500;53.268;8.308;2024-03-23T08:05:08;21.40;59.70
37658;DHT22;23500;53.268;8.308;2024-03-23T08:07:34;21.80;58.60
37658;DHT22;23500;53.268;8.308;2024-03-23T08:10:00;22.00;57.90
37658;DHT22;23500;53.268;8.308;2024-03-23T08:12:28;22.00;57.70
37658;DHT22;23500;53.268;8.308;2024-03-23T08:14:54;22.10;57.60
37658;DHT22;23500;53.268;8.308;2024-03-23T08:17:20;22.00;57.70
37658;DHT22;23500;53.268;8.308;2024-03-23T08:19:45;21.80;57.80
37658;DHT22;23500;53.268;8.308;2024-03-23T08:22:11;21.80;58.20
37658;DHT22;23500;53.268;8.308;2024-03-23T08:24:37;21.60;58.40
37658;DHT22;23500;53.268;8.308;2024-03-23T08:27:02;21.40;58.80
37658;DHT22;23500;53.268;8.308;2024-03-23T08:29:30;21.30;59.30
37658;DHT22;23500;53.268;8.308;2024-03-23T08:31:55;21.10;59.80
37658;DHT22;23500;53.268;8.308;2024-03-23T08:34:21;20.90;60.30
37658;DHT22;23500;53.268;8.308;2024-03-23T08:36:47;20.70;60.90
37658;DHT22;23500;53.268;8.308;2024-03-23T08:39:12;20.50;61.30
37658;DHT22;23500;53.268;8.308;2024-03-23T08:41:38;20.40;61.90
37658;DHT22;23500;53.268;8.308;2024-03-23T08:44:04;20.20;62.40
37658;DHT22;23500;53.268;8.308;2024-03-23T08:46:30;20.10;62.90
37658;DHT22;23500;53.268;8.308;2024-03-23T08:48:55;19.90;63.30
37658;DHT22;23500;53.268;8.308;2024-03-23T08:51:21;19.80;63.80
37658;DHT22;23500;53.268;8.308;2024-03-23T08:53:47;19.70;64.30
37658;DHT22;23500;53.268;8.308;2024-03-23T08:56:12;19.60;64.70
37658;DHT22;23500;53.268;8.308;2024-03-23T08:58:39;19.50;65.00
37658;DHT22;23500;53.268;8.308;2024-03-23T09:01:07;19.40;65.30
37658;DHT22;23500;53.268;8.308;2024-03-23T09:03:33;19.30;65.70
37658;DHT22;23500;53.268;8.308;2024-03-23T09:05:59;19.20;66.00
37658;DHT22;23500;53.268;8.308;2024-03-23T09:08:25;19.10;66.30
37658;DHT22;23500;53.268;8.308;2024-03-23T09:10:52;19.00;66.50
37658;DHT22;23500;53.268;8.308;2024-03-23T09:13:17;19.00;66.80
37658;DHT22;23500;53.268;8.308;2024-03-23T09:15:50;19.10;66.60
37658;DHT22;23500;53.268;8.308;2024-03-23T09:18:16;19.10;66.30
37658;DHT22;23500;53.268;8.308;2024-03-23T09:20:42;19.30;66.10
37658;DHT22;23500;53.268;8.308;2024-03-23T09:23:08;19.40;65.40
37658;DHT22;23500;53.268;8.308;2024-03-23T09:25:38;19.80;64.50
37658;DHT22;23500;53.268;8.308;2024-03-23T09:28:04;20.20;63.30
37658;DHT22;23500;53.268;8.308;2024-03-23T09:30:32;20.40;62.50
37658;DHT22;23500;53.268;8.308;2024-03-23T09:32:58;20.50;62.00
37658;DHT22;23500;53.268;8.308;2024-03-23T09:35:23;20.50;61.80
37658;DHT22;23500;53.268;8.308;2024-03-23T09:37:49;20.60;61.60
37658;DHT22;23500;53.268;8.308;2024-03-23T09:40:15;20.60;61.40
37658;DHT22;23500;53.268;8.308;2024-03-23T09:42:41;20.70;61.20
37658;DHT22;23500;53.268;8.308;2024-03-23T09:45:23;20.70;61.30
37658;DHT22;23500;53.268;8.308;2024-03-23T09:47:52;20.60;61.30
37658;DHT22;23500;53.268;8.308;2024-03-23T09:50:18;20.50;61.40
37658;DHT22;23500;53.268;8.308;2024-03-23T09:52:46;20.50;61.70
37658;DHT22;23500;53.268;8.308;2024-03-23T09:55:11;20.40;61.90
37658;DHT22;23500;53.268;8.308;2024-03-23T09:57:37;20.30;62.20
37658;DHT22;23500;53.268;8.308;2024-03-23T10:00:04;20.20;62.60
37658;DHT22;23500;53.268;8.308;2024-03-23T10:02:29;20.10;62.90
37658;DHT22;23500;53.268;8.308;2024-03-23T10:04:55;19.90;63.30
37658;DHT22;23500;53.268;8.308;2024-03-23T10:07:22;19.90;63.60
37658;DHT22;23500;53.268;8.308;2024-03-23T10:09:48;19.80;64.00
37658;DHT22;23500;53.268;8.308;2024-03-23T10:12:18;19.60;64.20
37658;DHT22;23500;53.268;8.308;2024-03-23T10:14:44;19.60;64.60
37658;DHT22;23500;53.268;8.308;2024-03-23T10:17:19;19.40;64.90
37658;DHT22;23500;53.268;8.308;2024-03-23T10:19:49;19.30;65.30
37658;DHT22;23500;53.268;8.308;2024-03-23T10:22:18;19.20;66.30
37658;DHT22;23500;53.268;8.308;2024-03-23T10:24:44;19.20;65.90
37658;DHT22;23500;53.268;8.308;2024-03-23T10:27:18;19.10;66.00
37658;DHT22;23500;53.268;8.308;2024-03-23T10:30:13;19.10;66.20
37658;DHT22;23500;53.268;8.308;2024-03-23T10:32:43;19.10;66.10
37658;DHT22;23500;53.268;8.308;2024-03-23T10:35:18;19.10;66.30
37658;DHT22;23500;53.268;8.308;2024-03-23T10:37:45;19.10;66.10
37658;DHT22;23500;53.268;8.308;2024-03-23T10:40:13;19.20;65.90
37658;DHT22;23500;53.268;8.308;2024-03-23T10:42:39;19.40;65.50
37658;DHT22;23500;53.268;8.308;2024-03-23T10:45:06;19.60;64.90
37658;DHT22;23500;53.268;8.308;2024-03-23T10:47:34;19.90;64.00
37658;DHT22;23500;53.268;8.308;2024-03-23T10:49:59;20.10;63.10
37658;DHT22;23500;53.268;8.308;2024-03-23T10:52:25;20.30;62.50
37658;DHT22;23500;53.268;8.308;2024-03-23T10:54:51;20.40;62.20
37658;DHT22;23500;53.268;8.308;2024-03-23T10:57:34;20.50;61.90
37658;DHT22;23500;53.268;8.308;2024-03-23T11:00:03;20.40;61.80
37658;DHT22;23500;53.268;8.308;2024-03-23T11:02:29;20.40;61.90
37658;DHT22;23500;53.268;8.308;2024-03-23T11:04:55;20.40;62.10
37658;DHT22;23500;53.268;8.308;2024-03-23T11:09:59;20.20;62.40
37658;DHT22;23500;53.268;8.308;2024-03-23T11:12:26;20.10;62.50
37658;DHT22;23500;53.268;8.308;2024-03-23T11:17:25;20.00;63.20
37658;DHT22;23500;53.268;8.308;2024-03-23T11:20:01;19.90;63.40
37658;DHT22;23500;53.268;8.308;2024-03-23T11:25:23;19.70;64.00
37658;DHT22;23500;53.268;8.308;2024-03-23T11:27:53;19.60;64.30
37658;DHT22;23500;53.268;8.308;2024-03-23T11:32:46;19.40;64.90
37658;DHT22;23500;53.268;8.308;2024-03-23T11:35:35;19.40;65.10
37658;DHT22;23500;53.268;8.308;2024-03-23T11:38:14;19.30;65.30
37658;DHT22;23500;53.268;8.308;2024-03-23T11:40:46;19.30;65.40
37658;DHT22;23500;53.268;8.308;2024-03-23T11:43:19;19.20;65.70
37658;DHT22;23500;53.268;8.308;2024-03-23T11:48:13;19.20;65.70
37658;DHT22;23500;53.268;8.308;2024-03-23T11:50:44;19.30;65.60
37658;DHT22;23500;53.268;8.308;2024-03-23T11:53:25;19.40;65.30
37658;DHT22;23500;53.268;8.308;2024-03-23T11:55:57;19.60;64.70
37658;DHT22;23500;53.268;8.308;2024-03-23T11:58:25;19.80;64.00
37658;DHT22;23500;53.268;8.308;2024-03-23T12:01:01;20.00;63.40
37658;DHT22;23500;53.268;8.308;2024-03-23T12:03:31;20.10;62.80
37658;DHT22;23500;53.268;8.308;2024-03-23T12:06:00;20.20;62.50
37658;DHT22;23500;53.268;8.308;2024-03-23T12:11:09;20.20;62.40
37658;DHT22;23500;53.268;8.308;2024-03-23T12:13:37;20.20;62.60
37658;DHT22;23500;53.268;8.308;2024-03-23T12:16:13;20.20;62.60
37658;DHT22;23500;53.268;8.308;2024-03-23T12:18:41;20.10;62.80
37658;DHT22;23500;53.268;8.308;2024-03-23T12:21:07;20.00;63.00
37658;DHT22;23500;53.268;8.308;2024-03-23T12:23:34;19.90;63.20
37658;DHT22;23500;53.268;8.308;2024-03-23T12:26:00;19.90;63.50
37658;DHT22;23500;53.268;8.308;2024-03-23T12:28:26;19.70;63.70
37658;DHT22;23500;53.268;8.308;2024-03-23T12:30:51;19.70;64.00
37658;DHT22;23500;53.268;8.308;2024-03-23T12:33:22;19.60;64.20
37658;DHT22;23500;53.268;8.308;2024-03-23T12:35:49;19.60;64.40
37658;DHT22;23500;53.268;8.308;2024-03-23T12:38:15;19.50;64.50
37658;DHT22;23500;53.268;8.308;2024-03-23T12:40:41;19.50;64.70
37658;DHT22;23500;53.268;8.308;2024-03-23T12:43:07;19.40;64.80
37658;DHT22;23500;53.268;8.308;2024-03-23T12:45:33;19.30;65.00
37658;DHT22;23500;53.268;8.308;2024-03-23T12:47:59;19.30;65.30
37658;DHT22;23500;53.268;8.308;2024-03-23T12:50:25;19.20;65.50
37658;DHT22;23500;53.268;8.308;2024-03-23T12:52:50;19.20;65.50
37658;DHT22;23500;53.268;8.308;2024-03-23T12:55:17;19.20;65.60
37658;DHT22;23500;53.268;8.308;2024-03-23T12:57:42;19.30;65.40
37658;DHT22;23500;53.268;8.308;2024-03-23T13:00:08;19.40;64.90
37658;DHT22;23500;53.268;8.308;2024-03-23T13:02:40;19.60;64.40
37658;DHT22;23500;53.268;8.308;2024-03-23T13:05:06;19.70;64.10
37658;DHT22;23500;53.268;8.308;2024-03-23T13:07:33;19.80;63.80
37658;DHT22;23500;53.268;8.308;2024-03-23T13:09:59;20.00;63.40
37658;DHT22;23500;53.268;8.308;2024-03-23T13:12:24;20.10;63.00
37658;DHT22;23500;53.268;8.308;2024-03-23T13:14:50;20.10;62.90
37658;DHT22;23500;53.268;8.308;2024-03-23T13:17:16;20.10;62.80
37658;DHT22;23500;53.268;8.308;2024-03-23T13:19:41;20.10;62.80
37658;DHT22;23500;53.268;8.308;2024-03-23T13:22:07;20.00;62.80
37658;DHT22;23500;53.268;8.308;2024-03-23T13:24:34;20.00;62.90
37658;DHT22;23500;53.268;8.308;2024-03-23T13:26:59;20.00;63.10
37658;DHT22;23500;53.268;8.308;2024-03-23T13:29:25;19.90;63.20
37658;DHT22;23500;53.268;8.308;2024-03-23T13:31:51;19.90;63.40
37658;DHT22;23500;53.268;8.308;2024-03-23T13:34:18;19.80;63.60
37658;DHT22;23500;53.268;8.308;2024-03-23T13:36:47;19.70;63.80
37658;DHT22;23500;53.268;8.308;2024-03-23T13:39:14;19.60;64.00
37658;DHT22;23500;53.268;8.308;2024-03-23T13:41:44;19.50;64.20
37658;DHT22;23500;53.268;8.308;2024-03-23T13:44:13;19.50;64.60
37658;DHT22;23500;53.268;8.308;2024-03-23T13:46:43;19.30;64.90
37658;DHT22;23500;53.268;8.308;2024-03-23T13:49:28;19.20;65.20
37658;DHT22;23500;53.268;8.308;2024-03-23T13:51:55;19.20;65.60
37658;DHT22;23500;53.268;8.308;2024-03-23T13:54:21;19.10;65.90
37658;DHT22;23500;53.268;8.308;2024-03-23T13:56:55;19.00;66.00
37658;DHT22;23500;53.268;8.308;2024-03-23T13:59:21;18.90;66.30
37658;DHT22;23500;53.268;8.308;2024-03-23T14:01:48;18.90;66.40
37658;DHT22;23500;53.268;8.308;2024-03-23T14:04:14;19.00;66.40
37658;DHT22;23500;53.268;8.308;2024-03-23T14:06:44;19.00;66.20
37658;DHT22;23500;53.268;8.308;2024-03-23T14:09:13;19.10;65.90
37658;DHT22;23500;53.268;8.308;2024-03-23T14:11:40;19.30;65.40
37658;DHT22;23500;53.268;8.308;2024-03-23T14:14:08;19.40;65.10
37658;DHT22;23500;53.268;8.308;2024-03-23T14:16:35;19.50;64.70
37658;DHT22;23500;53.268;8.308;2024-03-23T14:19:00;19.60;64.20
37658;DHT22;23500;53.268;8.308;2024-03-23T14:21:26;19.70;64.10
37658;DHT22;23500;53.268;8.308;2024-03-23T14:23:52;19.80;63.80
37658;DHT22;23500;53.268;8.308;2024-03-23T14:26:19;19.90;63.40
37658;DHT22;23500;53.268;8.308;2024-03-23T14:28:45;20.00;63.10
37658;DHT22;23500;53.268;8.308;2024-03-23T14:31:11;20.10;62.70
37658;DHT22;23500;53.268;8.308;2024-03-23T14:33:37;20.10;62.60
37658;DHT22;23500;53.268;8.308;2024-03-23T14:36:04;20.10;62.60
37658;DHT22;23500;53.268;8.308;2024-03-23T14:38:30;20.10;62.70
37658;DHT22;23500;53.268;8.308;2024-03-23T14:40:59;20.00;62.80
37658;DHT22;23500;53.268;8.308;2024-03-23T14:43:25;19.90;63.00
37658;DHT22;23500;53.268;8.308;2024-03-23T14:46:13;19.90;63.40
37658;DHT22;23500;53.268;8.308;2024-03-23T14:48:40;19.70;63.60
37658;DHT22;23500;53.268;8.308;2024-03-23T14:51:06;19.60;63.90
37658;DHT22;23500;53.268;8.308;2024-03-23T14:53:38;19.50;64.40
37658;DHT22;23500;53.268;8.308;2024-03-23T14:56:06;19.40;64.90
37658;DHT22;23500;53.268;8.308;2024-03-23T14:58:32;19.20;65.30
37658;DHT22;23500;53.268;8.308;2024-03-23T15:01:07;19.20;65.60
37658;DHT22;23500;53.268;8.308;2024-03-23T15:03:37;19.10;65.80
37658;DHT22;23500;53.268;8.308;2024-03-23T15:06:05;19.10;66.00
37658;DHT22;23500;53.268;8.308;2024-03-23T15:08:30;19.00;66.10
37658;DHT22;23500;53.268;8.308;2024-03-23T15:11:00;19.10;66.10
37658;DHT22;23500;53.268;8.308;2024-03-23T15:13:33;19.10;65.90
37658;DHT22;23500;53.268;8.308;2024-03-23T15:15:59;19.20;65.60
37658;DHT22;23500;53.268;8.308;2024-03-23T15:18:25;19.30;65.20
37658;DHT22;23500;53.268;8.308;2024-03-23T15:23:20;19.70;64.30
37658;DHT22;23500;53.268;8.308;2024-03-23T15:25:46;19.80;63.90
37658;DHT22;23500;53.268;8.308;2024-03-23T15:28:11;19.80;63.70
37658;DHT22;23500;53.268;8.308;2024-03-23T15:30:37;19.90;63.40
37658;DHT22;23500;53.268;8.308;2024-03-23T15:33:03;19.90;63.20
37658;DHT22;23500;53.268;8.308;2024-03-23T15:35:28;19.90;63.10
37658;DHT22;23500;53.268;8.308;2024-03-23T15:37:54;20.00;63.10
37658;DHT22;23500;53.268;8.308;2024-03-23T15:40:20;19.90;63.00
37658;DHT22;23500;53.268;8.308;2024-03-23T15:42:45;19.90;63.10
37658;DHT22;23500;53.268;8.308;2024-03-23T15:45:11;19.90;63.30
37658;DHT22;23500;53.268;8.308;2024-03-23T15:47:37;19.90;63.40
37658;DHT22;23500;53.268;8.308;2024-03-23T15:50:03;19.80;63.50
37658;DHT22;23500;53.268;8.308;2024-03-23T15:52:37;19.70;63.60
37658;DHT22;23500;53.268;8.308;2024-03-23T15:55:06;19.60;63.90
37658;DHT22;23500;53.268;8.308;2024-03-23T15:57:35;19.60;64.20
37658;DHT22;23500;53.268;8.308;2024-03-23T16:00:02;19.50;64.40
37658;DHT22;23500;53.268;8.308;2024-03-23T16:02:28;19.40;64.70
37658;DHT22;23500;53.268;8.308;2024-03-23T16:04:54;19.30;65.10
37658;DHT22;23500;53.268;8.308;2024-03-23T16:07:20;19.20;65.50
37658;DHT22;23500;53.268;8.308;2024-03-23T16:09:46;19.00;66.00
37658;DHT22;23500;53.268;8.308;2024-03-23T16:12:12;18.90;66.50
37658;DHT22;23500;53.268;8.308;2024-03-23T16:14:37;18.70;67.00
37658;DHT22;23500;53.268;8.308;2024-03-23T16:17:03;18.60;67.40
37658;DHT22;23500;53.268;8.308;2024-03-23T16:19:29;18.50;67.70
37658;DHT22;23500;53.268;8.308;2024-03-23T16:21:54;18.50;67.90
37658;DHT22;23500;53.268;8.308;2024-03-23T16:24:21;18.50;68.00
37658;DHT22;23500;53.268;8.308;2024-03-23T16:26:47;18.40;68.00
37658;DHT22;23500;53.268;8.308;2024-03-23T16:29:12;18.40;68.10
37658;DHT22;23500;53.268;8.308;2024-03-23T16:31:38;18.40;68.20
37658;DHT22;23500;53.268;8.308;2024-03-23T16:34:04;18.40;68.30
37658;DHT22;23500;53.268;8.308;2024-03-23T16:36:29;18.30;68.40
37658;DHT22;23500;53.268;8.308;2024-03-23T16:38:55;18.30;68.50
37658;DHT22;23500;53.268;8.308;2024-03-23T16:41:21;18.30;68.50
37658;DHT22;23500;53.268;8.308;2024-03-23T16:43:47;18.30;68.50